Time;durP1;ratioP1;P1;durP2;ratioP2;P2;SDS_P1;SDS_P2;PMS_P1;PMS_P2;Temp;Humidity;BMP_temperature;BMP_pressure;BME280_temperature;BME280_humidity;BME280_pressure;Samples;Min_cycle;Max_cycle;Signal;HPM_P1;HPM_P2
2022/09/04 00:02:13;;;;;;;36.78;32.38;;;;;;;;;;5074961;28;20024;-79
2022/09/04 00:05:00;;;;;;;36.60;31.23;;;;;;;;;;5108925;28;20599;-79
2022/09/04 00:07:26;;;;;;;39.10;30.90;;;;;;;;;;5091903;28;20128;-80
2022/09/04 00:10:11;;;;;;;39.17;33.20;;;;;;;;;;5073989;28;20028;-79
2022/09/04 00:12:53;;;;;;;41.08;31.55;;;;;;;;;;5077945;28;20020;-80
2022/09/04 00:15:22;;;;;;;44.55;32.20;;;;;;;;;;5092195;28;20438;-80
2022/09/04 00:17:51;;;;;;;39.38;32.58;;;;;;;;;;5073892;28;20016;-80
2022/09/04 00:20:17;;;;;;;37.10;32.42;;;;;;;;;;5107577;28;20047;-80
2022/09/04 00:22:52;;;;;;;39.30;31.63;;;;;;;;;;5091731;28;20485;-79
2022/09/04 00:25:24;;;;;;;44.72;33.42;;;;;;;;;;5092086;28;20024;-83
2022/09/04 00:27:54;;;;;;;38.10;31.85;;;;;;;;;;5077336;28;20492;-81
2022/09/04 00:30:21;;;;;;;39.72;31.92;;;;;;;;;;5066438;28;20050;-82
2022/09/04 00:32:50;;;;;;;34.50;30.95;;;;;;;;;;5073969;28;20095;-80
2022/09/04 00:35:30;;;;;;;36.42;30.50;;;;;;;;;;5092110;28;20507;-81
2022/09/04 00:38:03;;;;;;;36.88;30.92;;;;;;;;;;5091434;28;20558;-81
2022/09/04 00:40:29;;;;;;;37.40;30.02;;;;;;;;;;5076877;28;20119;-83
2022/09/04 00:43:07;;;;;;;38.25;31.67;;;;;;;;;;5110350;28;20048;-84
2022/09/04 00:45:52;;;;;;;34.33;30.27;;;;;;;;;;5107872;28;20031;-80
2022/09/04 00:48:21;;;;;;;31.85;28.42;;;;;;;;;;5063515;28;20023;-80
2022/09/04 00:50:50;;;;;;;37.38;28.50;;;;;;;;;;5095323;28;20118;-82
2022/09/04 00:53:36;;;;;;;38.53;30.67;;;;;;;;;;5125650;27;20028;-80
2022/09/04 00:56:21;;;;;;;44.10;31.30;;;;;;;;;;5095039;28;20478;-82
2022/09/04 00:58:51;;;;;;;42.08;30.98;;;;;;;;;;5099924;28;20024;-82
2022/09/04 01:01:27;;;;;;;37.53;30.08;;;;;;;;;;5095440;28;20016;-82
2022/09/04 01:04:08;;;;;;;36.35;28.48;;;;;;;;;;5119878;27;20026;-82
2022/09/04 01:06:54;;;;;;;32.17;27.95;;;;;;;;;;5094617;28;20031;-80
2022/09/04 01:09:37;;;;;;;30.88;27.27;;;;;;;;;;5094639;28;20038;-81
2022/09/04 01:12:08;;;;;;;37.23;33.37;;;;;;;;;;5095017;28;20050;-82
2022/09/04 01:14:40;;;;;;;42.10;34.17;;;;;;;;;;5075465;28;20379;-82
2022/09/04 01:17:12;;;;;;;38.05;33.83;;;;;;;;;;5060037;28;20016;-83
2022/09/04 01:19:57;;;;;;;33.95;30.17;;;;;;;;;;5103897;28;20027;-82
2022/09/04 01:22:31;;;;;;;35.85;28.45;;;;;;;;;;5090012;28;20111;-81
2022/09/04 01:25:09;;;;;;;30.75;26.70;;;;;;;;;;5076755;28;20020;-79
2022/09/04 01:27:44;;;;;;;30.88;27.58;;;;;;;;;;5076943;28;20055;-81
2022/09/04 01:30:20;;;;;;;32.35;25.52;;;;;;;;;;5080079;28;20036;-80
2022/09/04 01:33:04;;;;;;;32.33;26.80;;;;;;;;;;5094641;28;20048;-81
2022/09/04 01:35:45;;;;;;;30.48;27.10;;;;;;;;;;5088265;28;20024;-80
2022/09/04 01:38:17;;;;;;;28.95;26.00;;;;;;;;;;5076409;28;20064;-82
2022/09/04 01:40:49;;;;;;;28.33;25.20;;;;;;;;;;5110870;28;20078;-80
2022/09/04 01:43:17;;;;;;;33.63;27.85;;;;;;;;;;5094834;28;20032;-82
2022/09/04 01:46:03;;;;;;;30.65;24.70;;;;;;;;;;5104652;28;20020;-81
2022/09/04 01:48:50;;;;;;;28.00;24.40;;;;;;;;;;5094131;28;20021;-82
2022/09/04 01:51:35;;;;;;;27.73;24.52;;;;;;;;;;5075426;28;20038;-79
2022/09/04 01:54:10;;;;;;;28.85;24.45;;;;;;;;;;5080537;28;20016;-81
2022/09/04 01:56:56;;;;;;;32.45;26.63;;;;;;;;;;5098890;28;20035;-80
2022/09/04 01:59:29;;;;;;;31.58;27.73;;;;;;;;;;5076105;28;20020;-80
2022/09/04 02:01:55;;;;;;;29.77;26.67;;;;;;;;;;5096089;28;20494;-80
2022/09/04 02:04:27;;;;;;;34.17;27.35;;;;;;;;;;5114819;28;20023;-80
2022/09/04 02:06:56;;;;;;;39.92;26.63;;;;;;;;;;5080973;28;20483;-81
2022/09/04 02:09:22;;;;;;;31.45;26.85;;;;;;;;;;5094241;28;20107;-80
2022/09/04 02:11:52;;;;;;;26.55;23.85;;;;;;;;;;5089669;28;20255;-81
2022/09/04 02:14:26;;;;;;;34.08;24.58;;;;;;;;;;5076274;28;20025;-80
2022/09/04 02:17:09;;;;;;;29.95;25.77;;;;;;;;;;5094166;28;20149;-82
2022/09/04 02:19:41;;;;;;;34.67;26.05;;;;;;;;;;5063860;28;20024;-79
2022/09/04 02:22:23;;;;;;;28.90;25.77;;;;;;;;;;5093871;28;20398;-81
2022/09/04 02:24:52;;;;;;;28.52;24.08;;;;;;;;;;5108822;28;20024;-81
2022/09/04 02:27:18;;;;;;;31.10;24.65;;;;;;;;;;5102453;28;20384;-81
2022/09/04 02:30:02;;;;;;;28.17;23.85;;;;;;;;;;5093641;28;20016;-80
2022/09/04 02:32:41;;;;;;;32.38;25.80;;;;;;;;;;5075848;28;20080;-80
2022/09/04 02:35:25;;;;;;;29.48;25.13;;;;;;;;;;5093266;28;20482;-81
2022/09/04 02:38:13;;;;;;;31.55;27.77;;;;;;;;;;5109015;28;20130;-79
2022/09/04 02:40:48;;;;;;;33.40;26.42;;;;;;;;;;5095708;28;20024;-79
2022/09/04 02:43:20;;;;;;;29.38;26.38;;;;;;;;;;5099014;28;20056;-81
2022/09/04 02:46:04;;;;;;;29.00;25.83;;;;;;;;;;5086220;28;21034;-81
2022/09/04 02:48:33;;;;;;;29.58;25.63;;;;;;;;;;5094490;28;20031;-81
2022/09/04 02:51:02;;;;;;;30.98;26.75;;;;;;;;;;5109413;28;20410;-81
2022/09/04 02:53:41;;;;;;;33.60;28.13;;;;;;;;;;5093183;28;20051;-81
2022/09/04 02:56:12;;;;;;;35.17;28.98;;;;;;;;;;5075240;28;20496;-80
2022/09/04 02:59:05;;;;;;;32.83;27.45;;;;;;;;;;5092996;28;20044;-79
2022/09/04 03:01:39;;;;;;;30.13;26.90;;;;;;;;;;5055947;28;20086;-79
2022/09/04 03:04:11;;;;;;;30.48;26.63;;;;;;;;;;5094437;28;20039;-79
2022/09/04 03:06:44;;;;;;;36.30;30.47;;;;;;;;;;5093038;28;20099;-79
2022/09/04 03:09:12;;;;;;;31.65;28.10;;;;;;;;;;5092660;28;20114;-81
2022/09/04 03:11:45;;;;;;;36.67;27.98;;;;;;;;;;5092944;28;20039;-80
2022/09/04 03:14:27;;;;;;;31.48;27.55;;;;;;;;;;5092234;28;20024;-79
2022/09/04 03:17:03;;;;;;;33.55;29.05;;;;;;;;;;5074765;28;20058;-80
2022/09/04 03:19:35;;;;;;;35.65;29.50;;;;;;;;;;5092813;28;20107;-80
2022/09/04 03:22:15;;;;;;;30.38;27.20;;;;;;;;;;5122484;27;20023;-79
2022/09/04 03:24:41;;;;;;;35.30;27.95;;;;;;;;;;5081925;28;20024;-79
2022/09/04 03:27:10;;;;;;;34.00;29.23;;;;;;;;;;5074608;28;20504;-79
2022/09/04 03:29:36;;;;;;;34.83;29.48;;;;;;;;;;5110391;28;20115;-79
2022/09/04 03:32:05;;;;;;;31.02;27.65;;;;;;;;;;5074540;28;20119;-79
2022/09/04 03:34:35;;;;;;;32.55;29.00;;;;;;;;;;5107747;28;20031;-79
2022/09/04 03:37:01;;;;;;;36.85;29.45;;;;;;;;;;5104332;28;20031;-82
2022/09/04 03:39:40;;;;;;;33.22;29.45;;;;;;;;;;5092082;28;20048;-80
2022/09/04 03:42:06;;;;;;;31.05;26.65;;;;;;;;;;5095033;28;20023;-79
2022/09/04 03:44:46;;;;;;;30.83;25.88;;;;;;;;;;5107969;28;20055;-80
2022/09/04 03:47:38;;;;;;;29.48;25.60;;;;;;;;;;5079572;28;20433;-80
2022/09/04 03:50:10;;;;;;;34.20;26.52;;;;;;;;;;5075095;28;20126;-79
2022/09/04 03:52:44;;;;;;;30.08;26.17;;;;;;;;;;5084634;28;20021;-79
2022/09/04 03:55:32;;;;;;;33.85;30.25;;;;;;;;;;5088312;28;20483;-80
2022/09/04 03:57:58;;;;;;;37.20;29.48;;;;;;;;;;5104068;28;20103;-80
2022/09/04 04:00:24;;;;;;;37.05;30.00;;;;;;;;;;5108880;28;20020;-79
2022/09/04 04:03:04;;;;;;;32.75;29.35;;;;;;;;;;5073662;28;20016;-79
2022/09/04 04:05:30;;;;;;;37.55;30.20;;;;;;;;;;5091901;28;20103;-79
2022/09/04 04:08:14;;;;;;;37.90;32.15;;;;;;;;;;5107825;28;20398;-80
2022/09/04 04:10:52;;;;;;;35.53;30.25;;;;;;;;;;5091666;28;20091;-82
2022/09/04 04:13:25;;;;;;;37.13;29.75;;;;;;;;;;5120000;28;20027;-81
2022/09/04 04:16:10;;;;;;;37.92;31.20;;;;;;;;;;5110983;28;20016;-80
2022/09/04 04:18:54;;;;;;;39.15;30.25;;;;;;;;;;5112242;28;20500;-81
2022/09/04 04:21:38;;;;;;;35.47;31.65;;;;;;;;;;5066229;28;20062;-80
2022/09/04 04:24:04;;;;;;;;;;;;;;;;;;5112234;28;20028;-81
2022/09/04 04:26:49;;;;;;;34.13;28.48;;;;;;;;;;5116660;27;19982;-81
2022/09/04 04:29:15;;;;;;;32.67;28.80;;;;;;;;;;5084852;28;20111;-81
2022/09/04 04:32:12;;;;;;;32.38;28.90;;;;;;;;;;5072223;28;20139;-81
2022/09/04 04:34:38;;;;;;;34.22;30.65;;;;;;;;;;5107349;28;20023;-80
2022/09/04 04:37:08;;;;;;;35.10;29.52;;;;;;;;;;5095896;28;20051;-80
2022/09/04 04:39:41;;;;;;;37.97;31.20;;;;;;;;;;5110148;28;20057;-80
2022/09/04 04:42:27;;;;;;;41.53;34.28;;;;;;;;;;5108872;28;20032;-80
2022/09/04 04:47:53;;;;;;;43.85;33.47;;;;;;;;;;5096049;28;20081;-80
2022/09/04 04:50:26;;;;;;;38.33;31.73;;;;;;;;;;5106394;28;20040;-79
2022/09/04 04:52:58;;;;;;;32.55;29.20;;;;;;;;;;5102721;28;20028;-80
2022/09/04 04:56:02;;;;;;;35.83;31.33;;;;;;;;;;5105484;28;20013;-81
2022/09/04 04:58:29;;;;;;;43.05;33.33;;;;;;;;;;5051567;28;20031;-79
2022/09/04 05:00:55;;;;;;;41.47;30.42;;;;;;;;;;5064496;28;20024;-79
2022/09/04 05:03:31;;;;;;;40.60;29.70;;;;;;;;;;5089753;28;20040;-78
2022/09/04 05:06:11;;;;;;;41.63;29.27;;;;;;;;;;5082397;28;20458;-80
2022/09/04 05:08:37;;;;;;;34.53;27.17;;;;;;;;;;5096431;28;20016;-80
2022/09/04 05:11:14;;;;;;;32.72;29.27;;;;;;;;;;5107960;28;20039;-79
2022/09/04 05:13:43;;;;;;;32.83;28.30;;;;;;;;;;5077414;28;20032;-81
2022/09/04 05:16:09;;;;;;;31.15;26.65;;;;;;;;;;5108336;28;20074;-80
2022/09/04 05:18:39;;;;;;;35.35;27.27;;;;;;;;;;5094507;28;20058;-78
2022/09/04 05:21:16;;;;;;;31.88;27.70;;;;;;;;;;5094623;28;20531;-78
2022/09/04 05:23:42;;;;;;;32.63;27.27;;;;;;;;;;5076460;28;20379;-77
2022/09/04 05:26:40;;;;;;;33.88;26.30;;;;;;;;;;5080156;28;20162;-80
2022/09/04 05:29:13;;;;;;;33.65;26.35;;;;;;;;;;5050838;28;20404;-78
2022/09/04 05:31:45;;;;;;;39.83;29.00;;;;;;;;;;5093612;28;20080;-78
2022/09/04 05:34:29;;;;;;;34.60;25.48;;;;;;;;;;5110539;28;20020;-78
2022/09/04 05:36:55;;;;;;;29.55;25.80;;;;;;;;;;5062974;28;20016;-79
2022/09/04 05:39:26;;;;;;;31.67;28.33;;;;;;;;;;5122972;27;20418;-77
2022/09/04 05:41:59;;;;;;;31.27;27.50;;;;;;;;;;5094090;28;20430;-79
2022/09/04 05:44:28;;;;;;;34.65;27.02;;;;;;;;;;5075990;28;20127;-78
2022/09/04 05:47:05;;;;;;;35.83;28.77;;;;;;;;;;5099038;28;20055;-79
2022/09/04 05:49:31;;;;;;;34.00;26.92;;;;;;;;;;5100813;28;20024;-79
2022/09/04 05:52:00;;;;;;;31.30;27.85;;;;;;;;;;5093945;28;20112;-79
2022/09/04 05:54:26;;;;;;;33.25;29.35;;;;;;;;;;5111549;27;20374;-79
2022/09/04 05:57:06;;;;;;;33.20;28.33;;;461.00;256.00;;;;;;5110192;28;20024;-79
2022/09/04 05:59:53;;;;;;;34.17;28.95;;;460.80;435.20;;;;;;5072610;28;20157;-79
2022/09/04 06:02:53;;;;;;;35.10;29.63;;;461.00;128.00;;;;;;5094104;28;20024;-79
2022/09/04 06:05:56;;;;;;;39.03;29.20;;;460.90;128.00;;;;;;5093623;28;20127;-79
2022/09/04 06:08:21;;;;;;;35.05;29.33;;;460.90;128.00;;;;;;5076178;28;20028;-79
2022/09/04 06:11:07;;;;;;;32.60;28.50;;;460.90;665.60;;;;;;5109522;28;20359;-79
2022/09/04 06:13:59;;;;;;;44.28;28.58;;;461.30;179.20;;;;;;5054729;28;20031;-79
2022/09/04 06:16:44;;;;;;;33.40;27.63;;;461.20;153.60;;;;;;5093625;28;20063;-80
2022/09/04 06:19:30;;;;;;;32.90;27.58;;;461.30;179.20;;;;;;5107966;28;20428;-78
2022/09/04 06:22:19;;;;;;;30.42;27.20;;;461.50;128.00;;;;;;5094024;28;20047;-78
2022/09/04 06:25:09;;;;;;;33.65;27.73;;;461.50;128.00;;;;;;5077259;28;20108;-79
2022/09/04 06:27:55;;;;;;;29.70;26.50;;;461.50;128.00;;;;;;5106905;28;20069;-79
2022/09/04 06:30:24;;;;;;;36.45;27.75;;;461.70;128.00;;;;;;5093384;28;20036;-77
2022/09/04 06:33:11;;;;;;;40.03;28.55;;;486.40;128.00;;;;;;5107532;28;20031;-79
2022/09/04 06:35:56;;;;;;;38.20;31.17;;;486.40;128.00;;;;;;5092531;28;20107;-79
2022/09/04 06:38:30;;;;;;;36.63;28.48;;;461.70;128.00;;;;;;5121482;27;20078;-79
2022/09/04 06:41:24;;;;;;;32.45;26.73;;;486.40;128.00;;;;;;5093308;28;20584;-78
2022/09/04 06:44:03;;;;;;;32.25;28.27;;;486.60;128.00;;;;;;5096283;28;20075;-79
2022/09/04 06:46:59;;;;;;;32.25;28.27;;;486.80;128.00;;;;;;5093353;28;20027;-78
2022/09/04 06:49:52;;;;;;;31.02;27.20;;;486.90;128.00;;;;;;5104630;28;20062;-79
2022/09/04 06:52:44;;;;;;;34.13;26.90;;;487.10;128.00;;;;;;5087097;28;20036;-79
2022/09/04 06:55:32;;;;;;;33.95;27.20;;;487.10;128.00;;;;;;5095889;28;20039;-79
2022/09/04 06:58:19;;;;;;;31.25;27.08;;;487.20;128.00;;;;;;5082228;28;20032;-79
2022/09/04 07:01:07;;;;;;;28.95;25.85;;;487.20;128.00;;;;;;5079277;28;20020;-79
2022/09/04 07:03:54;;;;;;;30.85;27.33;;;487.20;128.00;;;;;;5074591;28;20024;-78
2022/09/04 07:06:25;;;;;;;33.10;27.30;;;512.00;128.00;;;;;;5103202;28;20031;-78
2022/09/04 07:09:04;;;;;;;29.67;26.48;;;512.10;128.00;;;;;;5095391;28;20012;-77
2022/09/04 07:11:49;;;;;;;27.00;23.67;;;;;;;;;;5074369;28;20036;-79
2022/09/04 07:14:21;;;;;;;27.77;24.88;;;;;;;;;;5074205;28;20031;-78
2022/09/04 07:16:47;;;;;;;26.08;23.35;;;;;;;;;;5108076;28;20032;-82
2022/09/04 07:19:13;;;;;;;27.45;24.13;;;;;;;;;;5108381;28;20020;-79
2022/09/04 07:21:59;;;;;;;25.73;22.33;;;;;;;;;;5092690;28;20020;-79
2022/09/04 07:24:34;;;;;;;31.80;22.55;;;;;;;;;;5073849;28;20016;-78
2022/09/04 07:27:05;;;;;;;34.55;24.05;;;;;;;;;;5083147;28;20550;-77
2022/09/04 07:29:36;;;;;;;30.02;26.00;;;;;;;;;;5080374;28;20103;-79
2022/09/04 07:32:05;;;;;;;31.15;25.58;;;;;;;;;;5074747;28;20032;-79
2022/09/04 07:34:48;;;;;;;28.20;25.17;;;;;;;;;;5091947;28;20024;-78
2022/09/04 07:37:23;;;;;;;30.42;25.25;;;;;;;;;;5092022;28;20543;-78
2022/09/04 07:39:57;;;;;;;28.85;25.80;;;;;;;;;;5073852;28;20059;-83
2022/09/04 07:42:26;;;;;;;30.75;25.48;;;;;;;;;;5102053;28;20020;-81
2022/09/04 07:45:05;;;;;;;34.30;27.20;;;;;;;;;;5091867;28;20099;-82
2022/09/04 07:47:33;;;;;;;31.13;27.25;;;;;;;;;;5092255;28;20032;-82
2022/09/04 07:50:09;;;;;;;28.60;25.10;;;;;;;;;;5107152;28;20079;-83
2022/09/04 07:52:38;;;;;;;30.15;26.38;;;;;;;;;;5074579;28;20024;-82
2022/09/04 07:55:27;;;;;;;28.75;24.05;;;;;;;;;;5108557;28;20103;-82
2022/09/04 07:58:12;;;;;;;32.30;26.17;;;;;;;;;;5083723;28;20027;-82
2022/09/04 08:00:58;;;;;;;33.17;26.45;;;;;;;;;;5071352;28;20494;-81
2022/09/04 08:03:27;;;;;;;29.95;26.77;;;;;;;;;;5101056;28;20470;-82
2022/09/04 08:06:04;;;;;;;28.33;25.33;;;;;;;;;;5087446;28;20020;-81
2022/09/04 08:08:39;;;;;;;29.13;26.13;;;;;;;;;;5105872;28;20131;-82
2022/09/04 08:11:12;;;;;;;30.63;26.00;;;;;;;;;;5107796;28;20051;-82
2022/09/04 08:14:17;;;;;;;29.00;25.90;;;;;;;;;;5107682;28;20016;-81
2022/09/04 08:16:55;;;;;;;34.90;27.88;;;;;;;;;;5009742;28;20121;-81
2022/09/04 08:19:39;;;;;;;27.88;24.92;;;;;;;;;;5009660;28;20018;-82
2022/09/04 08:22:06;;;;;;;24.98;22.42;;;;;;;;;;5081713;28;20026;-84
2022/09/04 08:24:52;;;;;;;25.38;22.55;;;;;;;;;;5114414;28;20030;-82
2022/09/04 08:27:38;;;;;;;24.48;21.73;;;;;;;;;;5096643;28;20020;-82
2022/09/04 08:30:09;;;;;;;22.98;20.58;;;;;;;;;;5074013;28;20201;-83
2022/09/04 08:32:47;;;;;;;25.67;22.67;;;;;;;;;;5086391;28;20453;-80
2022/09/04 08:35:19;;;;;;;28.75;24.27;;;;;;;;;;5097594;28;20106;-79
2022/09/04 08:37:48;;;;;;;24.95;22.17;;;;;;;;;;5113467;28;20359;-79
2022/09/04 08:40:24;;;;;;;21.27;19.17;;;;;;;;;;5105324;28;20111;-79
2022/09/04 08:43:02;;;;;;;25.60;22.73;;;;;;;;;;5090091;28;20805;-78
2022/09/04 08:45:28;;;;;;;26.33;22.27;;;;;;;;;;5073180;28;20027;-79
2022/09/04 08:48:00;;;;;;;24.20;21.63;;;;;;;;;;5090980;28;20364;-78
2022/09/04 08:50:50;;;;;;;23.27;19.73;;;;;;;;;;5072651;28;20507;-77
2022/09/04 08:53:34;;;;;;;20.13;17.27;;;;;;;;;;5091009;28;20108;-79
2022/09/04 08:56:15;;;;;;;24.15;20.00;;;;;;;;;;5091231;28;20039;-79
2022/09/04 08:58:47;;;;;;;24.42;19.27;;;;;;;;;;5100608;28;20101;-80
2022/09/04 09:01:24;;;;;;;18.65;16.67;;;;;;;;;;5082310;28;20513;-80
2022/09/04 09:04:02;;;;;;;18.75;16.75;;;;;;;;;;5057429;28;20044;-83
2022/09/04 09:06:47;;;;;;;23.10;17.95;;;;;;;;;;5105245;28;20039;-83
2022/09/04 09:09:19;;;;;;;21.17;16.00;;;;;;;;;;5078414;28;20023;-82
2022/09/04 09:12:04;;;;;;;18.02;16.17;;;;;;;;;;5124967;27;20055;-78
2022/09/04 09:14:42;;;;;;;19.92;16.80;;;;;;;;;;5110714;28;20020;-79
2022/09/04 09:17:27;;;;;;;20.08;17.92;;;;;;;;;;5114605;27;20020;-79
2022/09/04 09:19:53;;;;;;;17.20;15.45;;;;;;;;;;5096887;28;20028;-79
2022/09/04 09:22:19;;;;;;;19.58;15.18;;;;;;;;;;5074071;28;20502;-78
2022/09/04 09:24:53;;;;;;;18.38;16.48;;;;;;;;;;5102505;27;20443;-78
2022/09/04 09:27:19;;;;;;;;;;;;;;;;;;5100248;27;20094;-79
2022/09/04 09:29:51;;;;;;;16.10;14.38;;;;;;;;;;5110604;27;20308;-78
2022/09/04 09:32:27;;;;;;;18.90;14.20;;;;;;;;;;5075417;28;20036;-78
2022/09/04 09:35:20;;;;;;;16.15;14.05;;;;;;;;;;5108216;28;20023;-78
2022/09/04 09:37:54;;;;;;;15.15;11.85;;;;;;;;;;5093811;28;20494;-79
2022/09/04 09:40:21;;;;;;;16.75;14.30;;;;;;;;;;5092700;28;20077;-78
2022/09/04 09:42:56;;;;;;;15.48;12.85;;;;;;;;;;5098647;28;20044;-78
2022/09/04 09:45:34;;;;;;;16.40;12.68;;;;;;;;;;5110902;27;20032;-78
2022/09/04 09:48:12;;;;;;;13.95;12.55;;;;;;;;;;5075191;28;20024;-79
2022/09/04 09:50:38;;;;;;;13.57;11.35;;;;;;;;;;5096224;28;20081;-78
2022/09/04 09:53:30;;;;;;;16.95;12.05;;;;;;;;;;5075844;28;20109;-80
2022/09/04 09:55:57;;;;;;;12.30;11.05;;;;;;;;;;5092851;28;20016;-78
2022/09/04 09:58:29;;;;;;;13.10;11.57;;;;;;;;;;5109277;27;20020;-79
2022/09/04 10:01:14;;;;;;;14.00;12.13;;;;;;;;;;5123735;27;20077;-78
2022/09/04 10:03:59;;;;;;;15.70;13.10;;;;;;;;;;5102932;28;20028;-79
2022/09/04 10:06:28;;;;;;;17.80;14.40;;;;;;;;;;5106865;27;20031;-76
2022/09/04 10:09:12;;;;;;;14.82;13.02;;;;;;;;;;5108621;28;20031;-77
2022/09/04 10:12:01;;;;;;;19.48;15.13;;;;;;;;;;5091775;28;20028;-76
2022/09/04 10:14:46;;;;;;;16.60;14.80;;;;;;;;;;5075155;28;20031;-77
2022/09/04 10:17:12;;;;;;;17.23;14.93;;;;;;;;;;5095678;28;20028;-77
2022/09/04 10:19:45;;;;;;;14.90;13.40;;;;;;;;;;5093185;28;20093;-78
2022/09/04 10:22:29;;;;;;;15.13;13.52;;;;;;;;;;5083136;28;20024;-83
2022/09/04 10:24:59;;;;;;;20.17;14.20;;;;;;;;;;5078109;28;20082;-76
2022/09/04 10:27:31;;;;;;;18.70;14.18;;;;;;;;;;5087308;28;20030;-77
2022/09/04 10:30:03;;;;;;;14.15;12.85;;;;;;;;;;5074760;28;20066;-78
2022/09/04 10:32:32;;;;;;;19.83;15.75;;;;;;;;;;5096349;28;20038;-82
2022/09/04 10:34:58;;;;;;;18.58;14.05;;;;;;;;;;5089739;28;20085;-82
2022/09/04 10:37:30;;;;;;;14.23;12.77;;;;;;;;;;5059239;28;20028;-78
2022/09/04 10:40:34;;;;;;;15.40;13.23;;;;;;;;;;5093531;28;20062;-79
2022/09/04 10:43:19;;;;;;;18.77;13.63;;;;;;;;;;5103757;27;20166;-79
2022/09/04 10:45:46;;;;;;;14.30;13.00;;;;;;;;;;5095497;28;20035;-78
2022/09/04 10:48:31;;;;;;;14.50;13.10;;;;;;;;;;5073662;28;20035;-76
2022/09/04 10:51:21;;;;;;;19.00;12.75;;;;;;;;;;5096556;28;20503;-77
2022/09/04 10:54:06;;;;;;;14.60;12.80;;;;;;;;;;5074792;28;20032;-78
2022/09/04 10:56:38;;;;;;;14.50;13.00;;;;;;;;;;5090887;28;20024;-78
2022/09/04 10:59:33;;;;;;;17.58;12.63;;;;;;;;;;5092619;28;20024;-77
2022/09/04 11:02:15;;;;;;;15.85;12.23;;;;;;;;;;5060137;28;20035;-77
2022/09/04 11:04:59;;;;;;;12.48;11.15;;;;;;;;;;5091684;28;20423;-78
2022/09/04 11:07:37;;;;;;;13.30;11.10;;;;;;;;;;5090618;28;20043;-80
2022/09/04 11:10:12;;;;;;;16.80;13.13;;;;;;;;;;5109771;27;20059;-79
2022/09/04 11:12:47;;;;;;;16.88;14.27;;;;;;;;;;5079206;28;20032;-79
2022/09/04 11:15:24;;;;;;;30.85;24.33;;;;;;;;;;5091095;28;20024;-78
2022/09/04 11:18:00;;;;;;;33.65;27.33;;;;;;;;;;5084111;28;20076;-81
2022/09/04 11:20:44;;;;;;;44.50;30.50;;;;;;;;;;5098480;28;20016;-79
2022/09/04 11:23:29;;;;;;;15.52;13.93;;;;;;;;;;5107384;27;20039;-77
2022/09/04 11:26:11;;;;;;;15.20;13.65;;;;;;;;;;5088385;28;20024;-80
2022/09/04 11:28:46;;;;;;;44.45;37.47;;;;;;;;;;5115708;27;20024;-79
2022/09/04 11:31:27;;;;;;;78.28;68.50;;;;;;;;;;5060838;28;20044;-77
2022/09/04 11:33:56;;;;;;;72.75;65.05;;;;;;;;;;5106810;27;20021;-76
2022/09/04 11:36:44;;;;;;;23.17;18.42;;;;;;;;;;5089751;28;20545;-77
2022/09/04 11:39:29;;;;;;;18.77;14.70;;;;;;;;;;5093534;28;20036;-77
2022/09/04 11:42:07;;;;;;;41.17;36.55;;;;;;;;;;5091862;28;20020;-78
2022/09/04 11:44:33;;;;;;;21.42;19.23;;;;;;;;;;5079561;28;20043;-78
2022/09/04 11:47:05;;;;;;;72.20;64.57;;;;;;;;;;5090978;28;20032;-78
2022/09/04 11:49:33;;;;;;;28.88;23.75;;;;;;;;;;5093687;28;20026;-77
2022/09/04 11:52:12;;;;;;;30.60;26.90;;;;;;;;;;5115967;27;20054;-77
2022/09/04 11:54:47;;;;;;;21.15;19.05;;;;;;;;;;5102986;28;20028;-78
2022/09/04 11:57:32;;;;;;;51.95;46.65;;;;;;;;;;5085244;28;20028;-77
2022/09/04 12:00:08;;;;;;;34.30;30.17;;;;;;;;;;5089068;28;20036;-76
2022/09/04 12:02:37;;;;;;;29.10;26.00;;;;;;;;;;5088313;28;20312;-76
2022/09/04 12:05:03;;;;;;;28.25;25.35;;;;;;;;;;5088015;28;20062;-79
2022/09/04 12:07:29;;;;;;;24.35;20.10;;;;;;;;;;5067438;28;20069;-77
2022/09/04 12:10:15;;;;;;;48.65;43.53;;;;;;;;;;5072178;28;20024;-78
2022/09/04 12:12:48;;;;;;;26.52;23.88;;;;;;;;;;5095653;28;20422;-78
2022/09/04 12:15:28;;;;;;;16.80;15.10;;;;;;;;;;5083003;28;20035;-78
2022/09/04 12:18:07;;;;;;;20.40;15.30;;;;;;;;;;5083735;28;20028;-78
2022/09/04 12:20:39;;;;;;;15.65;11.25;;;;;;;;;;5087560;28;20039;-79
2022/09/04 12:23:06;;;;;;;;;;;;;;;;;;5088706;28;20024;-78
2022/09/04 12:25:32;;;;;;;13.88;11.73;;;;;;;;;;5086895;28;19943;-79
2022/09/04 12:28:00;;;;;;;19.70;17.17;;;;;;;;;;5087867;28;20097;-78
2022/09/04 12:30:37;;;;;;;14.85;12.73;;;;;;;;;;5080737;28;20052;-77
2022/09/04 12:33:22;;;;;;;15.18;13.68;;;;;;;;;;5101300;28;20029;-75
2022/09/04 12:36:09;;;;;;;9.60;8.70;;;;;;;;;;5101911;28;20098;-77
2022/09/04 12:38:38;;;;;;;12.65;9.18;;;;;;;;;;5094321;28;20120;-77
2022/09/04 12:41:17;;;;;;;12.50;5.70;;;;;;;;;;5076936;28;20137;-77
2022/09/04 12:43:52;;;;;;;6.78;6.07;;;;;;;;;;5110904;28;20467;-78
2022/09/04 12:46:24;;;;;;;7.68;6.88;;;;;;;;;;5077009;28;20032;-77
2022/09/04 12:48:50;;;;;;;10.80;8.48;;;;;;;;;;5109390;28;20043;-79
2022/09/04 12:51:20;;;;;;;10.18;6.97;;;;;;;;;;5094884;28;20060;-81
2022/09/04 12:54:03;;;;;;;8.13;6.65;;;;;;;;;;5094857;28;20023;-81
2022/09/04 12:56:40;;;;;;;9.68;8.75;;;;;;;;;;5094885;28;20074;-79
2022/09/04 12:59:17;;;;;;;9.88;8.48;;;;;;;;;;5095059;28;20016;-82
2022/09/04 13:01:46;;;;;;;10.75;9.13;;;;;;;;;;5094963;28;20024;-78
2022/09/04 13:04:18;;;;;;;12.93;10.68;;;;;;;;;;5107882;28;20047;-84
2022/09/04 13:06:52;;;;;;;18.65;16.75;;;;;;;;;;5092025;28;20024;-82
2022/09/04 13:09:37;;;;;;;17.25;14.75;;;;;;;;;;5077866;28;20031;-83
2022/09/04 13:12:26;;;;;;;21.15;10.93;;;;;;;;;;5091298;28;20062;-84
2022/09/04 13:15:03;;;;;;;14.18;9.18;;;;;;;;;;5100163;28;20016;-84
2022/09/04 13:17:29;;;;;;;12.90;11.23;;;;;;;;;;5097829;28;20012;-85
2022/09/04 13:20:04;;;;;;;12.98;10.98;;;;;;;;;;5107407;28;20016;-83
2022/09/04 13:22:38;;;;;;;11.15;9.27;;;;;;;;;;5095559;28;20055;-85
2022/09/04 13:25:12;;;;;;;13.32;10.43;;;;;;;;;;5102793;28;20019;-84
2022/09/04 13:27:46;;;;;;;13.25;11.20;;;;;;;;;;5080941;28;20020;-78
2022/09/04 13:30:20;;;;;;;16.70;10.90;;;;;;;;;;5113942;27;20026;-83
2022/09/04 13:33:05;;;;;;;11.45;9.85;;;;;;;;;;5109431;28;20032;-84
2022/09/04 13:35:43;;;;;;;12.43;10.77;;;;;;;;;;5118891;27;20030;-79
2022/09/04 13:38:28;;;;;;;21.05;13.02;;;;;;;;;;5109244;27;20147;-84
2022/09/04 13:41:12;;;;;;;14.07;11.82;;;;;;;;;;5108771;28;20020;-80
2022/09/04 13:43:41;;;;;;;16.95;12.60;;;;;;;;;;5064668;28;20028;-78
2022/09/04 13:46:20;;;;;;;14.93;13.30;;;;;;;;;;5094126;28;20418;-78
2022/09/04 13:48:50;;;;;;;22.30;15.93;;;;;;;;;;5094595;28;20004;-79
2022/09/04 13:51:32;;;;;;;15.93;13.90;;;;;;;;;;5094854;28;20034;-79
2022/09/04 13:54:30;;;;;;;17.23;13.85;;;;;;;;;;5110870;28;20027;-79
2022/09/04 13:57:05;;;;;;;19.00;13.73;;;;;;;;;;5060737;28;20038;-78
2022/09/04 13:59:32;;;;;;;15.15;13.10;;;;;;;;;;5110240;28;20020;-79
2022/09/04 14:01:59;;;;;;;14.00;12.48;;;;;;;;;;5093882;28;20012;-80
2022/09/04 14:04:42;;;;;;;17.70;15.60;;;;;;;;;;5105881;28;20027;-79
2022/09/04 14:07:18;;;;;;;19.30;12.73;;;;;;;;;;5076418;28;20108;-79
2022/09/04 14:09:46;;;;;;;13.82;12.18;;;;;;;;;;5107280;28;20090;-79
2022/09/04 14:12:21;;;;;;;16.70;12.10;;;;;;;;;;5094562;28;20024;-80
2022/09/04 14:14:54;;;;;;;15.55;10.90;;;;;;;;;;5093925;28;20047;-79
2022/09/04 14:17:25;;;;;;;13.57;11.23;;;;;;;;;;5093835;28;20022;-78
2022/09/04 14:19:54;;;;;;;16.58;12.10;;;;;;;;;;5093911;28;20062;-79
2022/09/04 14:22:25;;;;;;;14.30;11.60;;;;;;;;;;5098293;27;20024;-77
2022/09/04 14:25:06;;;;;;;14.57;11.68;;;;;;;;;;5092441;28;20016;-79
2022/09/04 14:27:38;;;;;;;12.25;11.05;;;;;;;;;;5092307;28;20256;-78
2022/09/04 14:30:08;;;;;;;10.90;9.90;;;;;;;;;;5108182;28;20046;-81
2022/09/04 14:32:38;;;;;;;11.75;9.82;;;;;;;;;;5068784;28;20047;-79
2022/09/04 14:35:07;;;;;;;12.85;10.90;;;;;;;;;;5102984;27;20050;-81
2022/09/04 14:37:46;;;;;;;17.95;13.48;;;;;;;;;;5092325;28;20016;-76
2022/09/04 14:40:14;;;;;;;14.73;13.23;;;;;;;;;;5074488;28;20552;-77
2022/09/04 14:42:46;;;;;;;12.85;11.60;;;;;;;;;;5108238;28;20028;-77
2022/09/04 14:45:17;;;;;;;14.75;13.05;;;;;;;;;;5092998;28;20076;-79
2022/09/04 14:48:10;;;;;;;18.95;10.73;;;;;;;;;;5093187;28;20016;-78
2022/09/04 14:50:53;;;;;;;13.27;11.93;;;;;;;;;;5072636;28;20406;-80
2022/09/04 14:53:30;;;;;;;17.42;15.60;;;;;;;;;;5074657;28;20119;-77
2022/09/04 14:56:09;;;;;;;16.80;12.70;;;;;;;;;;5074667;28;20502;-80
2022/09/04 14:58:54;;;;;;;15.70;14.20;;;;;;;;;;5092344;28;20030;-79
2022/09/04 15:01:22;;;;;;;17.42;12.98;;;;;;;;;;5112273;27;20019;-77
2022/09/04 15:03:54;;;;;;;79.25;66.30;;;;;;;;;;5114337;27;20052;-77